Time;durP1;ratioP1;P1;durP2;ratioP2;P2;SDS_P1;SDS_P2;PMS_P1;PMS_P2;Temp;Humidity;BMP_temperature;BMP_pressure;BME280_temperature;BME280_humidity;BME280_pressure;Samples;Min_cycle;Max_cycle;Signal;HPM_P1;HPM_P2
2021/01/28 00:00:30;;;;;;;25.00;14.85;;;13.40;2201.60;;;;;;4924915;29;20024;-74
2021/01/28 00:02:56;;;;;;;22.30;15.32;;;13.40;2201.60;;;;;;4926847;29;20470;-74
2021/01/28 00:05:26;;;;;;;26.85;16.92;;;13.10;2201.60;;;;;;4924876;29;20027;-74
2021/01/28 00:07:52;;;;;;;29.05;18.55;;;13.30;2201.60;;;;;;4927093;29;20516;-74
2021/01/28 00:10:19;;;;;;;21.58;15.80;;;13.20;2201.60;;;;;;4927282;29;20015;-74
2021/01/28 00:12:46;;;;;;;25.98;16.73;;;13.10;2201.60;;;;;;4928609;29;20035;-74
2021/01/28 00:15:14;;;;;;;26.13;16.10;;;13.00;2201.60;;;;;;4930630;29;20031;-74
2021/01/28 00:17:41;;;;;;;21.73;14.05;;;12.90;2201.60;;;;;;4932219;29;20019;-74
2021/01/28 00:20:20;;;;;;;24.30;13.95;;;13.40;2201.60;;;;;;4924942;29;20047;-74
2021/01/28 00:22:46;;;;;;;23.52;16.33;;;12.90;2201.60;;;;;;4916259;29;20048;-74
2021/01/28 00:25:19;;;;;;;24.98;15.70;;;12.90;2201.60;;;;;;4910044;29;20119;-74
2021/01/28 00:27:46;;;;;;;23.63;14.93;;;13.00;2201.60;;;;;;4931324;29;20024;-75
2021/01/28 00:30:25;;;;;;;21.67;13.88;;;13.00;2201.60;;;;;;4933104;29;20080;-74
2021/01/28 00:32:52;;;;;;;21.25;14.23;;;13.00;2201.60;;;;;;4932467;29;20028;-75
2021/01/28 00:35:35;;;;;;;25.55;16.35;;;12.90;2201.60;;;;;;4913087;29;20039;-74
2021/01/28 00:38:02;;;;;;;20.35;13.30;;;13.00;2201.60;;;;;;4932692;29;20032;-73
2021/01/28 00:40:32;;;;;;;20.95;13.40;;;12.90;2201.60;;;;;;4923125;29;20012;-73
2021/01/28 00:43:04;;;;;;;36.08;19.92;;;12.90;2201.60;;;;;;4932582;29;20024;-75
2021/01/28 00:45:31;;;;;;;22.92;14.57;;;13.00;2201.60;;;;;;4934946;29;20020;-75
2021/01/28 00:48:19;;;;;;;28.33;17.65;;;13.10;2201.60;;;;;;4933844;29;20032;-74
2021/01/28 00:50:49;;;;;;;41.80;24.48;;;13.10;2201.60;;;;;;4935528;29;20035;-74
2021/01/28 00:53:16;;;;;;;26.48;16.92;;;13.10;2201.60;;;;;;4933884;29;20036;-74
2021/01/28 00:55:43;;;;;;;22.50;14.35;;;13.10;2201.60;;;;;;4937452;29;20162;-74
2021/01/28 00:58:23;;;;;;;22.77;14.48;;;13.00;2201.60;;;;;;4935974;29;20045;-74
2021/01/28 01:00:54;;;;;;;27.77;16.05;;;13.00;2201.60;;;;;;4933924;29;20048;-74
2021/01/28 01:03:22;;;;;;;27.10;15.90;;;13.00;2201.60;;;;;;4922537;29;20039;-74
2021/01/28 01:05:50;;;;;;;24.63;16.25;;;13.00;2201.60;;;;;;4923692;29;20032;-76
2021/01/28 01:08:23;;;;;;;22.17;14.70;;;13.10;2201.60;;;;;;4938164;29;20493;-74
2021/01/28 01:10:59;;;;;;;23.02;15.73;;;13.10;2201.60;;;;;;4932949;29;20032;-75
2021/01/28 01:13:46;;;;;;;21.75;14.98;;;13.10;2201.60;;;;;;4938048;29;20039;-74
2021/01/28 01:16:21;;;;;;;21.13;14.05;;;13.00;2201.60;;;;;;4938897;28;20020;-74
2021/01/28 01:18:48;;;;;;;32.88;19.85;;;13.00;2201.60;;;;;;4939759;29;20023;-74
2021/01/28 01:21:13;;;;;;;27.75;16.17;;;12.90;2201.60;;;;;;4928849;29;20036;-74
2021/01/28 01:23:39;;;;;;;27.60;16.80;;;12.90;2201.60;;;;;;4907596;29;20067;-73
2021/01/28 01:26:31;;;;;;;24.80;15.57;;;0.00;2201.60;;;;;;4938682;29;20094;-74
2021/01/28 01:28:57;;;;;;;27.17;17.25;;;0.00;2201.60;;;;;;4900379;29;20041;-73
2021/01/28 01:31:22;;;;;;;27.80;16.85;;;0.00;2201.60;;;;;;4899244;29;20140;-74
2021/01/28 01:34:12;;;;;;;25.38;15.10;;;0.10;2201.60;;;;;;4899589;29;20037;-74
2021/01/28 01:36:37;;;;;;;33.22;18.77;;;0.10;2201.60;;;;;;4897695;29;20061;-73
2021/01/28 01:39:05;;;;;;;22.10;14.70;;;0.10;2201.60;;;;;;4897735;29;20033;-75
2021/01/28 01:41:31;;;;;;;26.42;16.27;;;0.20;2201.60;;;;;;4895322;29;20048;-74
2021/01/28 01:44:01;;;;;;;23.52;13.98;;;0.20;2201.60;;;;;;4898795;29;20062;-75
2021/01/28 01:46:29;;;;;;;18.95;12.15;;;0.20;2201.60;;;;;;4896494;29;20049;-74
2021/01/28 01:49:01;;;;;;;21.45;14.57;;;0.20;2201.60;;;;;;4898475;29;20115;-74
2021/01/28 01:51:38;;;;;;;19.48;13.02;;;0.30;2201.60;;;;;;4898126;29;20033;-74
2021/01/28 01:54:06;;;;;;;20.75;12.43;;;0.40;2201.60;;;;;;4879497;29;20030;-74
2021/01/28 01:56:40;;;;;;;19.35;12.15;;;0.40;2201.60;;;;;;4878957;29;20045;-74
2021/01/28 01:59:17;;;;;;;16.13;10.90;;;0.40;2201.60;;;;;;4881746;29;20042;-76
2021/01/28 02:01:48;;;;;;;21.15;14.15;;;0.50;2201.60;;;;;;4898167;29;20086;-73
2021/01/28 02:04:15;;;;;;;16.67;10.38;;;0.50;2201.60;;;;;;4886171;29;20013;-74
2021/01/28 02:06:47;;;;;;;17.73;11.02;;;0.50;2201.60;;;;;;4877827;29;20029;-75
2021/01/28 02:09:16;;;;;;;18.85;11.82;;;0.60;2201.60;;;;;;4892816;29;20123;-74
2021/01/28 02:11:42;;;;;;;16.48;11.57;;;13.00;2201.60;;;;;;4897146;29;20069;-74
2021/01/28 02:14:20;;;;;;;18.73;12.63;;;0.70;2201.60;;;;;;4932955;29;20036;-73
2021/01/28 02:16:58;;;;;;;18.45;11.40;;;0.60;2201.60;;;;;;4927486;29;20044;-73
2021/01/28 02:19:51;;;;;;;18.75;12.70;;;0.60;2201.60;;;;;;4929442;29;20028;-75
2021/01/28 02:22:27;;;;;;;20.20;13.38;;;0.50;2201.60;;;;;;4918038;29;20038;-74
2021/01/28 02:25:21;;;;;;;20.70;13.55;;;0.50;2201.60;;;;;;4937188;29;20027;-74
2021/01/28 02:28:09;;;;;;;15.63;11.13;;;0.60;2201.60;;;;;;4923793;29;20050;-74
2021/01/28 02:30:37;;;;;;;19.38;12.57;;;0.60;2201.60;;;;;;4927305;29;20432;-74
2021/01/28 02:33:35;;;;;;;17.73;12.27;;;0.50;2201.60;;;;;;4924459;29;20406;-74
2021/01/28 02:36:00;;;;;;;22.17;14.02;;;0.50;2201.60;;;;;;4933681;29;20028;-74
2021/01/28 02:38:26;;;;;;;24.27;14.95;;;0.60;2201.60;;;;;;4929064;29;20036;-74
2021/01/28 02:40:55;;;;;;;22.80;14.07;;;0.50;2201.60;;;;;;4926936;29;20032;-74
2021/01/28 02:43:28;;;;;;;20.33;14.23;;;0.50;2201.60;;;;;;4939472;29;20022;-74
2021/01/28 02:46:17;;;;;;;19.63;12.70;;;0.50;2201.60;;;;;;4926639;29;20406;-74
2021/01/28 02:48:43;;;;;;;21.33;13.90;;;0.50;2201.60;;;;;;4932322;29;20029;-74
2021/01/28 02:51:11;;;;;;;22.35;13.98;;;0.50;2201.60;;;;;;4934239;29;20083;-74
2021/01/28 02:53:50;;;;;;;19.55;13.68;;;0.90;2201.60;;;;;;4934085;29;20012;-74
2021/01/28 02:56:16;;;;;;;23.70;15.45;;;0.50;2201.60;;;;;;4915920;29;20051;-74
2021/01/28 02:58:42;;;;;;;21.25;14.95;;;0.60;2201.60;;;;;;4926898;29;20036;-74
2021/01/28 03:01:12;;;;;;;23.85;17.48;;;0.60;2201.60;;;;;;4933529;29;20055;-73
2021/01/28 03:03:38;;;;;;;20.33;13.63;;;0.60;2201.60;;;;;;4932685;29;20036;-77
2021/01/28 03:06:05;;;;;;;18.55;13.77;;;0.60;2201.60;;;;;;4932497;29;20481;-74
2021/01/28 03:08:33;;;;;;;21.77;14.75;;;0.60;2201.60;;;;;;4935278;29;20035;-74
2021/01/28 03:11:00;;;;;;;22.20;14.65;;;0.60;2201.60;;;;;;4928205;29;20046;-74
2021/01/28 03:13:25;;;;;;;21.60;13.70;;;0.60;2201.60;;;;;;4926004;28;20032;-74
2021/01/28 03:15:51;;;;;;;18.58;13.32;;;0.60;2201.60;;;;;;4936338;29;20008;-74
2021/01/28 03:18:17;;;;;;;21.20;14.30;;;0.60;2201.60;;;;;;4934761;29;20068;-74
2021/01/28 03:20:43;;;;;;;18.02;12.65;;;0.60;2201.60;;;;;;4927466;29;20047;-74
2021/01/28 03:23:14;;;;;;;19.42;12.45;;;0.70;2201.60;;;;;;4935022;29;20055;-74
2021/01/28 03:25:40;;;;;;;20.33;13.95;;;0.70;2201.60;;;;;;4924756;29;20088;-74
2021/01/28 03:28:07;;;;;;;18.65;13.10;;;0.60;2201.60;;;;;;4930784;29;20044;-74
2021/01/28 03:30:38;;;;;;;19.73;13.73;;;0.50;2201.60;;;;;;4902530;29;20056;-74
2021/01/28 03:33:06;;;;;;;19.60;13.50;;;0.50;2201.60;;;;;;4929749;29;20044;-74
2021/01/28 03:35:33;;;;;;;19.40;13.98;;;0.40;2201.60;;;;;;4935195;29;20015;-74
2021/01/28 03:37:58;;;;;;;19.65;13.25;;;0.20;2201.60;;;;;;4934717;29;20050;-73
2021/01/28 03:40:28;;;;;;;23.38;14.10;;;0.20;2201.60;;;;;;4931026;29;20032;-74
2021/01/28 03:43:17;;;;;;;20.17;13.90;;;0.10;2201.60;;;;;;4914418;29;20040;-74
2021/01/28 03:45:48;;;;;;;19.73;14.02;;;0.00;2201.60;;;;;;4887350;29;20053;-74
2021/01/28 03:48:14;;;;;;;22.15;13.75;;;13.00;2201.60;;;;;;4856361;29;20037;-74
2021/01/28 03:50:40;;;;;;;22.63;14.40;;;0.40;2201.60;;;;;;4887894;29;20045;-74
2021/01/28 03:53:06;;;;;;;20.92;14.45;;;13.00;2201.60;;;;;;4886425;29;20534;-73
2021/01/28 03:55:35;;;;;;;25.90;15.70;;;13.00;2201.60;;;;;;4886030;29;20072;-74
2021/01/28 03:58:01;;;;;;;22.10;14.65;;;13.10;2201.60;;;;;;4874105;29;20029;-74
2021/01/28 04:00:30;;;;;;;19.98;14.27;;;13.10;2201.60;;;;;;4877899;29;20032;-75
2021/01/28 04:02:57;;;;;;;20.70;14.43;;;13.20;2201.60;;;;;;4888920;29;20097;-76
2021/01/28 04:05:23;;;;;;;21.70;15.18;;;13.20;2201.60;;;;;;4891858;29;20045;-75
2021/01/28 04:07:50;;;;;;;20.98;14.98;;;13.20;2201.60;;;;;;4895307;29;20041;-75
2021/01/28 04:10:35;;;;;;;22.27;14.40;;;13.20;2201.60;;;;;;4893481;29;20044;-74
2021/01/28 04:13:09;;;;;;;22.17;14.82;;;13.20;2201.60;;;;;;4887363;29;20037;-73
2021/01/28 04:15:35;;;;;;;23.75;14.73;;;13.30;2201.60;;;;;;4901794;29;20020;-72
2021/01/28 04:18:02;;;;;;;28.05;16.08;;;13.30;2201.60;;;;;;4938979;29;20486;-72
2021/01/28 04:20:31;;;;;;;21.77;15.15;;;13.40;2201.60;;;;;;4936473;29;20036;-73
2021/01/28 04:22:57;;;;;;;24.02;16.45;;;13.40;2201.60;;;;;;4938035;29;20016;-72
2021/01/28 04:25:37;;;;;;;29.08;19.40;;;13.40;2201.60;;;;;;4936474;29;20040;-72
2021/01/28 04:28:03;;;;;;;29.70;21.25;;;13.50;2201.60;;;;;;4928029;29;20103;-73
2021/01/28 04:30:31;;;;;;;23.67;15.98;;;13.50;2201.60;;;;;;4936153;29;20032;-72
2021/01/28 04:32:58;;;;;;;21.70;15.50;;;13.50;2201.60;;;;;;4937825;29;20012;-72
2021/01/28 04:35:23;;;;;;;24.25;16.08;;;13.50;2201.60;;;;;;4927059;29;20036;-75
2021/01/28 04:37:50;;;;;;;22.42;15.88;;;13.50;2201.60;;;;;;4913278;29;20055;-69
2021/01/28 04:40:27;;;;;;;23.80;14.93;;;13.50;2201.60;;;;;;4915309;29;20040;-69
2021/01/28 04:42:54;;;;;;;27.05;15.40;;;13.40;2201.60;;;;;;4917976;29;20047;-69
2021/01/28 04:45:22;;;;;;;22.95;15.70;;;13.40;2201.60;;;;;;4922873;29;20042;-75
2021/01/28 04:47:53;;;;;;;23.83;16.23;;;13.40;2201.60;;;;;;4933475;29;20028;-74
2021/01/28 04:50:40;;;;;;;28.77;19.17;;;13.40;2201.60;;;;;;4928914;29;20043;-71
2021/01/28 04:53:20;;;;;;;30.52;20.13;;;13.40;2201.60;;;;;;4914872;29;20095;-70
2021/01/28 04:55:48;;;;;;;28.85;19.50;;;13.50;2201.60;;;;;;4914064;29;20060;-72
2021/01/28 04:58:15;;;;;;;26.98;17.52;;;13.40;2201.60;;;;;;4916368;29;20046;-72
2021/01/28 05:00:41;;;;;;;29.27;18.60;;;13.50;2201.60;;;;;;4913777;29;20029;-73
2021/01/28 05:03:22;;;;;;;28.08;18.95;;;13.50;2201.60;;;;;;4932957;29;20024;-76
2021/01/28 05:05:54;;;;;;;32.70;21.23;;;13.50;2201.60;;;;;;4920952;29;20087;-69
2021/01/28 05:08:21;;;;;;;29.55;19.77;;;13.50;2201.60;;;;;;4916711;29;20119;-69
2021/01/28 05:10:54;;;;;;;26.30;18.90;;;13.50;2201.60;;;;;;4916212;29;20032;-69
2021/01/28 05:13:37;;;;;;;30.67;19.77;;;13.50;2201.60;;;;;;4924675;29;20044;-77
2021/01/28 05:16:39;;;;;;;34.95;22.05;;;13.50;2201.60;;;;;;4918475;29;20092;-70
2021/01/28 05:19:11;;;;;;;30.73;19.50;;;13.50;2201.60;;;;;;4909848;29;20036;-70
2021/01/28 05:21:43;;;;;;;31.20;20.70;;;13.50;2201.60;;;;;;4917835;29;20488;-69
2021/01/28 05:24:30;;;;;;;33.33;19.77;;;13.60;2201.60;;;;;;4917708;29;20035;-72
2021/01/28 05:27:22;;;;;;;30.23;19.98;;;13.60;2201.60;;;;;;4897125;29;20027;-73
2021/01/28 05:29:48;;;;;;;32.67;20.27;;;13.60;2201.60;;;;;;4914263;29;20023;-77
2021/01/28 05:32:34;;;;;;;33.00;20.55;;;13.60;2201.60;;;;;;4948250;29;20119;-73
2021/01/28 05:35:11;;;;;;;30.63;19.88;;;13.60;2201.60;;;;;;4923743;29;20032;-75
2021/01/28 05:37:37;;;;;;;;;;;13.50;2201.60;;;;;;4918667;29;20048;-74
2021/01/28 05:40:15;;;;;;;32.53;22.35;;;13.50;2201.60;;;;;;4924022;29;19915;-72
2021/01/28 05:42:42;;;;;;;33.45;21.50;;;13.40;2201.60;;;;;;4922507;29;20123;-77
2021/01/28 05:45:36;;;;;;;33.50;20.17;;;13.40;2201.60;;;;;;4934047;29;20059;-72
2021/01/28 05:48:23;;;;;;;26.67;19.05;;;13.30;2201.60;;;;;;4929687;29;20127;-76
2021/01/28 05:51:05;;;;;;;30.33;18.05;;;13.20;2201.60;;;;;;4921265;29;20028;-71
2021/01/28 05:53:30;;;;;;;29.92;18.27;;;13.00;2201.60;;;;;;4916946;29;20028;-71
2021/01/28 05:56:19;;;;;;;29.45;18.10;;;13.00;2201.60;;;;;;4949575;29;20104;-74
2021/01/28 05:59:10;;;;;;;28.92;19.13;;;12.90;2201.60;;;;;;4885035;29;20057;-75
2021/01/28 06:02:15;;;;;;;29.13;18.38;;;0.00;2201.60;;;;;;4820010;29;20053;-75
2021/01/28 06:05:01;;;;;;;30.73;17.85;;;0.00;2201.60;;;;;;4779884;30;20047;-74
2021/01/28 06:07:57;;;;;;;26.95;18.60;;;0.10;2201.60;;;;;;4715209;30;20131;-70
2021/01/28 06:10:36;;;;;;;27.33;17.15;;;0.10;2201.60;;;;;;4720677;30;20045;-72
2021/01/28 06:13:23;;;;;;;25.88;18.90;;;0.10;2201.60;;;;;;4715467;30;20441;-75
2021/01/28 06:16:05;;;;;;;31.58;19.60;;;0.00;2201.60;;;;;;4722517;30;20053;-73
2021/01/28 06:18:51;;;;;;;30.50;19.25;;;12.90;2201.60;;;;;;4727949;30;20033;-74
2021/01/28 06:21:22;;;;;;;29.83;19.67;;;13.00;2201.60;;;;;;4726264;30;20125;-73
2021/01/28 06:24:10;;;;;;;31.75;20.10;;;13.10;2201.60;;;;;;4722221;30;20049;-72
2021/01/28 06:27:17;;;;;;;36.42;21.90;;;13.10;2201.60;;;;;;4715410;30;20032;-72
2021/01/28 06:30:21;;;;;;;37.20;23.48;;;13.20;2201.60;;;;;;4693184;30;20119;-75
2021/01/28 06:33:25;;;;;;;39.63;26.10;;;13.20;2201.60;;;;;;4761601;29;20020;-72
2021/01/28 06:36:53;;;;;;;45.97;27.38;;;13.20;2201.60;;;;;;4788857;30;20040;-76
2021/01/28 06:39:50;;;;;;;48.05;28.70;;;13.10;2201.60;;;;;;4767581;30;20080;-74
2021/01/28 06:42:28;;;;;;;53.28;30.55;;;13.00;2201.60;;;;;;4738584;30;20076;-74
2021/01/28 06:44:57;;;;;;;49.78;31.85;;;13.10;2201.60;;;;;;4767623;30;20094;-76
2021/01/28 06:47:36;;;;;;;55.88;31.65;;;13.10;2201.60;;;;;;4782062;30;20098;-72
2021/01/28 06:50:16;;;;;;;56.72;34.85;;;13.10;2201.60;;;;;;4786610;30;20533;-73
2021/01/28 06:53:14;;;;;;;48.95;32.45;;;13.10;2201.60;;;;;;4785900;30;20052;-73
2021/01/28 06:56:32;;;;;;;45.00;29.50;;;13.00;2201.60;;;;;;4785986;29;20086;-73
2021/01/28 06:59:32;;;;;;;41.55;28.45;;;0.00;2201.60;;;;;;4771092;30;20043;-75
2021/01/28 07:02:48;;;;;;;40.25;26.25;;;0.10;2201.60;;;;;;4742892;30;20033;-75
2021/01/28 07:05:47;;;;;;;37.45;25.48;;;0.30;2201.60;;;;;;4698873;30;20034;-74
2021/01/28 07:08:30;;;;;;;41.25;26.88;;;0.40;2201.60;;;;;;4699548;30;20092;-76
2021/01/28 07:10:56;;;;;;;36.08;22.65;;;0.50;2201.60;;;;;;4719450;30;20053;-72
2021/01/28 07:13:27;;;;;;;30.65;20.65;;;0.50;2201.60;;;;;;4704772;30;20038;-76
2021/01/28 07:16:07;;;;;;;31.10;18.27;;;0.50;2201.60;;;;;;4710769;30;20045;-78
2021/01/28 07:18:55;;;;;;;24.67;17.38;;;0.60;2201.60;;;;;;4732027;30;20055;-75
2021/01/28 07:21:39;;;;;;;24.98;17.40;;;0.70;2201.60;;;;;;4777205;30;20040;-72
2021/01/28 07:24:28;;;;;;;33.33;20.20;;;25.90;2201.60;;;;;;4782500;30;20109;-73
2021/01/28 07:27:09;;;;;;;39.13;28.33;;;51.90;2227.20;;;;;;4717140;30;20043;-75
2021/01/28 07:29:37;;;;;;;28.48;20.33;;;128.00;2124.80;;;;;;4715968;30;20048;-76
2021/01/28 07:32:11;;;;;;;25.40;19.52;;;154.40;1996.80;;;;;;4724482;30;20101;-75
2021/01/28 07:34:37;;;;;;;33.47;22.42;;;205.30;1843.20;;;;;;4754039;30;20051;-78
2021/01/28 07:37:18;;;;;;;27.05;19.55;;;205.40;1638.40;;;;;;4763916;30;20039;-70
2021/01/28 07:39:44;;;;;;;40.08;25.48;;;179.80;1587.20;;;;;;4808259;29;20054;-71
2021/01/28 07:42:31;;;;;;;27.05;19.55;;;179.20;1664.00;;;;;;4817801;29;20057;-81
2021/01/28 07:44:59;;;;;;;29.27;19.13;;;154.10;1740.80;;;;;;4820670;29;20045;-85
2021/01/28 07:47:31;;;;;;;39.28;26.88;;;128.90;1766.40;;;;;;4820981;29;20042;-77
2021/01/28 07:50:17;;;;;;;43.15;28.02;;;128.60;1766.40;;;;;;4814743;29;20061;-74
2021/01/28 07:52:43;;;;;;;36.47;20.08;;;128.20;1766.40;;;;;;4809421;29;20099;-76
2021/01/28 07:55:38;;;;;;;32.40;18.83;;;128.10;1843.20;;;;;;4827290;29;20588;-87
2021/01/28 07:58:15;;;;;;;24.10;15.77;;;103.20;1843.20;;;;;;4812011;29;20042;-78
2021/01/28 08:00:43;;;;;;;25.55;16.50;;;103.10;1894.40;;;;;;4818354;29;20026;-74
2021/01/28 08:03:22;;;;;;;30.02;18.20;;;102.80;1868.80;;;;;;4834015;29;20716;-74
2021/01/28 08:05:53;;;;;;;39.88;24.23;;;102.80;1868.80;;;;;;4913411;29;20470;-88
2021/01/28 08:08:20;;;;;;;33.00;21.58;;;102.60;1920.00;;;;;;4910932;29;20091;-73
2021/01/28 08:10:46;;;;;;;45.42;28.25;;;102.60;1920.00;;;;;;4919680;29;20056;-90
2021/01/28 08:13:28;;;;;;;38.47;22.58;;;102.50;1920.00;;;;;;4925926;29;20039;-79
2021/01/28 08:16:06;;;;;;;33.88;21.75;;;77.70;1945.60;;;;;;4915452;29;20075;-82
2021/01/28 08:18:37;;;;;;;30.75;19.23;;;77.70;1945.60;;;;;;4922721;29;20123;-78
2021/01/28 08:21:06;;;;;;;34.13;21.48;;;77.70;1971.20;;;;;;4913758;29;20028;-75
2021/01/28 08:23:33;;;;;;;27.42;17.65;;;102.40;1945.60;;;;;;4915553;29;20024;-76
2021/01/28 08:26:09;;;;;;;30.60;18.15;;;102.40;1945.60;;;;;;4916739;29;20036;-76
2021/01/28 08:28:40;;;;;;;44.20;26.20;;;102.40;1945.60;;;;;;4917966;29;20024;-85
2021/01/28 08:31:22;;;;;;;40.90;25.23;;;77.70;1920.00;;;;;;4896915;29;20032;-72
2021/01/28 08:33:57;;;;;;;45.38;25.83;;;102.40;1996.80;;;;;;4915194;29;20020;-76
2021/01/28 08:36:44;;;;;;;43.53;27.02;;;102.60;1996.80;;;;;;4912098;29;20480;-74
2021/01/28 08:39:19;;;;;;;72.32;48.95;;;102.70;1920.00;;;;;;4914950;29;20542;-76
2021/01/28 08:41:47;;;;;;;49.92;30.05;;;102.80;1945.60;;;;;;4916251;29;20116;-75
2021/01/28 08:44:16;;;;;;;65.40;34.42;;;102.90;1920.00;;;;;;4917997;29;20494;-76
2021/01/28 08:46:44;;;;;;;53.72;31.13;;;103.00;1894.40;;;;;;4915386;29;20072;-73
2021/01/28 08:49:20;;;;;;;40.55;23.70;;;102.90;1945.60;;;;;;4914530;29;20401;-76
2021/01/28 08:51:59;;;;;;;47.90;27.65;;;103.30;1894.40;;;;;;4915530;29;20591;-86
2021/01/28 08:54:35;;;;;;;38.33;23.38;;;103.30;1894.40;;;;;;4912721;29;20485;-85
2021/01/28 08:57:02;;;;;;;40.10;23.33;;;103.30;1843.20;;;;;;4898085;29;20578;-91
2021/01/28 08:59:39;;;;;;;55.80;27.30;;;103.30;1792.00;;;;;;4916097;29;20047;-92
2021/01/28 09:02:05;;;;;;;79.28;28.63;;;103.30;1868.80;;;;;;4926619;29;20031;-89
2021/01/28 09:04:44;;;;;;;48.97;25.98;;;128.20;1920.00;;;;;;4917631;29;20068;-83
2021/01/28 09:07:10;;;;;;;51.78;26.27;;;128.30;1920.00;;;;;;4916628;29;20056;-83
2021/01/28 09:09:36;;;;;;;65.50;37.80;;;128.20;1843.20;;;;;;4916642;29;20035;-92
2021/01/28 09:12:27;;;;;;;59.65;29.60;;;128.40;1868.80;;;;;;4916726;29;20051;-92
2021/01/28 09:15:10;;;;;;;35.80;19.85;;;128.50;1894.40;;;;;;4912528;29;20020;-92
2021/01/28 09:17:37;;;;;;;34.40;20.47;;;128.60;1817.60;;;;;;4913910;29;20510;-91
2021/01/28 09:20:04;;;;;;;41.85;22.92;;;128.70;1792.00;;;;;;4896995;29;20123;-92
2021/01/28 09:22:37;;;;;;;25.42;16.15;;;128.80;1792.00;;;;;;4913625;29;20032;-84
2021/01/28 09:25:29;;;;;;;23.00;14.85;;;153.60;1792.00;;;;;;4904171;29;20115;-89
2021/01/28 09:28:04;;;;;;;41.30;20.25;;;153.70;1817.60;;;;;;4912488;29;20390;-94
2021/01/28 09:30:41;;;;;;;25.33;15.75;;;153.70;1792.00;;;;;;4902006;29;20028;-92
2021/01/28 09:33:36;;;;;;;18.35;12.93;;;153.60;1740.80;;;;;;4928687;29;20083;-72
2021/01/28 09:36:19;;;;;;;29.95;16.55;;;128.90;1740.80;;;;;;4941895;29;20019;-76
2021/01/28 09:39:00;;;;;;;27.60;15.43;;;153.60;1766.40;;;;;;4919088;29;20028;-74
2021/01/28 09:41:30;;;;;;;19.02;11.35;;;153.60;1766.40;;;;;;4920349;29;20038;-72
2021/01/28 09:43:56;;;;;;;21.63;12.38;;;153.60;1740.80;;;;;;4920601;29;20394;-73
2021/01/28 09:46:24;;;;;;;19.38;12.48;;;153.70;1766.40;;;;;;4919132;29;20024;-75
2021/01/28 09:48:52;;;;;;;21.55;11.65;;;153.70;1766.40;;;;;;4920128;29;20111;-72
2021/01/28 09:51:28;;;;;;;14.88;9.77;;;153.80;1715.20;;;;;;4919374;29;20029;-72
2021/01/28 09:54:14;;;;;;;14.27;10.50;;;154.00;1715.20;;;;;;4922409;29;20032;-73
2021/01/28 09:56:40;;;;;;;16.63;10.40;;;154.00;1689.60;;;;;;4918864;29;20086;-70
2021/01/28 09:59:06;;;;;;;15.18;9.60;;;154.10;1715.20;;;;;;4918663;29;20116;-70
2021/01/28 10:01:32;;;;;;;21.63;11.82;;;154.10;1715.20;;;;;;4919299;29;20111;-87
2021/01/28 10:03:58;;;;;;;23.17;14.23;;;154.10;1664.00;;;;;;4917156;29;20032;-81
2021/01/28 10:06:24;;;;;;;22.23;14.50;;;153.80;1664.00;;;;;;4916216;29;20027;-72
2021/01/28 10:08:50;;;;;;;20.77;12.50;;;154.10;1664.00;;;;;;4917017;29;20401;-73
2021/01/28 10:11:16;;;;;;;25.55;14.88;;;154.20;1689.60;;;;;;4922311;29;20042;-69
2021/01/28 10:13:43;;;;;;;28.95;16.88;;;154.30;1715.20;;;;;;4916741;29;20056;-69
2021/01/28 10:16:09;;;;;;;40.97;21.92;;;154.40;1664.00;;;;;;4917822;29;20028;-70
2021/01/28 10:18:35;;;;;;;43.28;22.67;;;154.40;1689.60;;;;;;4917719;29;20028;-71
2021/01/28 10:21:01;;;;;;;30.73;18.27;;;154.40;1638.40;;;;;;4917350;29;20099;-82
2021/01/28 10:23:27;;;;;;;38.13;17.75;;;154.40;1612.80;;;;;;4917708;29;20036;-91
2021/01/28 10:25:53;;;;;;;27.17;16.50;;;154.30;1715.20;;;;;;4918906;29;20083;-87
2021/01/28 10:28:18;;;;;;;30.25;18.30;;;154.40;1638.40;;;;;;4928935;29;20106;-89
2021/01/28 10:30:44;;;;;;;28.48;15.07;;;154.50;1664.00;;;;;;4918163;29;20028;-75
2021/01/28 10:33:11;;;;;;;31.05;17.67;;;154.50;1664.00;;;;;;4918152;29;20024;-75
2021/01/28 10:35:37;;;;;;;33.80;20.90;;;154.40;1612.80;;;;;;4917434;29;20043;-84
2021/01/28 10:38:05;;;;;;;40.28;21.85;;;154.40;1689.60;;;;;;4917162;29;20032;-72
2021/01/28 10:40:31;;;;;;;32.92;20.35;;;154.10;1638.40;;;;;;4918046;29;20056;-71
2021/01/28 10:43:00;;;;;;;34.75;19.35;;;153.90;1689.60;;;;;;4918680;29;20042;-71
2021/01/28 10:45:45;;;;;;;35.00;20.30;;;153.90;1689.60;;;;;;4914307;29;20028;-72
2021/01/28 10:48:11;;;;;;;32.75;19.17;;;153.70;1740.80;;;;;;4917252;29;20033;-76
2021/01/28 10:50:37;;;;;;;27.55;15.85;;;153.60;1715.20;;;;;;4915281;29;20420;-77
2021/01/28 10:53:04;;;;;;;33.72;18.08;;;153.60;1740.80;;;;;;4911730;29;20028;-84
2021/01/28 10:55:31;;;;;;;29.67;16.80;;;153.70;1766.40;;;;;;4886980;29;20039;-88
2021/01/28 10:57:57;;;;;;;25.60;15.73;;;153.90;1740.80;;;;;;4902440;29;20051;-75
2021/01/28 11:00:24;;;;;;;23.20;14.38;;;154.00;1715.20;;;;;;4907540;29;20096;-76
2021/01/28 11:02:50;;;;;;;26.35;15.90;;;154.00;1715.20;;;;;;4900701;29;20028;-84
2021/01/28 11:05:22;;;;;;;24.17;14.63;;;154.10;1689.60;;;;;;4899797;29;20123;-85
2021/01/28 11:07:48;;;;;;;20.83;12.82;;;154.00;1638.40;;;;;;4907679;29;20035;-78
2021/01/28 11:10:16;;;;;;;23.05;12.70;;;154.00;1664.00;;;;;;4907511;29;20072;-78
2021/01/28 11:12:42;;;;;;;18.52;12.32;;;153.90;1689.60;;;;;;4906752;29;20136;-85
2021/01/28 11:15:09;;;;;;;18.05;11.20;;;154.10;1689.60;;;;;;4912121;29;20024;-81
2021/01/28 11:17:35;;;;;;;18.35;11.30;;;154.00;1689.60;;;;;;4907973;29;20044;-86
2021/01/28 11:20:02;;;;;;;17.73;12.15;;;154.00;1689.60;;;;;;4904029;29;20028;-88
2021/01/28 11:22:27;;;;;;;17.52;10.60;;;154.20;1689.60;;;;;;4903420;29;20052;-84
2021/01/28 11:24:53;;;;;;;23.58;14.18;;;154.20;1689.60;;;;;;4905949;29;20052;-85
2021/01/28 11:27:19;;;;;;;19.35;11.32;;;154.40;1612.80;;;;;;4904571;29;20047;-85
2021/01/28 11:29:45;;;;;;;27.20;16.15;;;154.40;1664.00;;;;;;4907197;29;20063;-74
2021/01/28 11:32:10;;;;;;;30.48;15.00;;;154.50;1638.40;;;;;;4906228;29;20035;-73
2021/01/28 11:34:36;;;;;;;43.50;21.35;;;179.20;1587.20;;;;;;4908737;29;20060;-84
2021/01/28 11:37:02;;;;;;;26.33;14.20;;;179.40;1664.00;;;;;;4912457;29;20138;-81
2021/01/28 11:39:28;;;;;;;29.17;16.45;;;179.40;1587.20;;;;;;4915809;29;20486;-81
2021/01/28 11:41:53;;;;;;;29.58;17.00;;;179.40;1638.40;;;;;;4916260;29;20035;-82
2021/01/28 11:44:19;;;;;;;19.48;10.00;;;179.40;1510.40;;;;;;4916897;29;20028;-78
2021/01/28 11:46:45;;;;;;;17.23;8.07;;;179.40;1510.40;;;;;;4916102;29;20024;-81
2021/01/28 11:49:13;;;;;;;21.13;11.65;;;179.50;1536.00;;;;;;4915864;29;20394;-80
2021/01/28 11:51:38;;;;;;;16.08;9.45;;;179.40;1433.60;;;;;;4915011;29;20616;-81
2021/01/28 11:54:04;;;;;;;23.58;11.57;;;179.60;1484.80;;;;;;4916747;29;20070;-86
2021/01/28 11:56:30;;;;;;;18.02;8.57;;;179.60;1484.80;;;;;;4898242;29;20052;-89
2021/01/28 11:58:56;;;;;;;18.30;9.88;;;179.50;1510.40;;;;;;4915631;29;20031;-74
2021/01/28 12:01:21;;;;;;;19.55;7.45;;;179.40;1382.40;;;;;;4912700;29;20039;-85
2021/01/28 12:03:47;;;;;;;30.13;9.90;;;179.30;1433.60;;;;;;4912768;29;20107;-94
2021/01/28 12:06:13;;;;;;;14.48;7.30;;;179.30;1433.60;;;;;;4912539;29;20034;-77
2021/01/28 12:08:38;;;;;;;17.67;8.73;;;179.30;1382.40;;;;;;4915702;29;20100;-69
2021/01/28 12:11:04;;;;;;;22.98;7.88;;;179.30;1459.20;;;;;;4915691;29;20035;-69
2021/01/28 12:13:30;;;;;;;15.57;9.32;;;179.30;1356.80;;;;;;4915964;29;20038;-69
2021/01/28 12:15:55;;;;;;;23.85;10.35;;;179.30;1331.20;;;;;;4916520;29;20128;-70
2021/01/28 12:18:21;;;;;;;24.58;12.57;;;179.40;1408.00;;;;;;4914677;29;20040;-68
2021/01/28 12:20:47;;;;;;;18.92;9.20;;;179.30;1408.00;;;;;;4914714;29;20087;-86
2021/01/28 12:23:13;;;;;;;18.15;8.07;;;179.30;1408.00;;;;;;4898777;29;20091;-78
2021/01/28 12:25:39;;;;;;;11.35;6.63;;;179.40;1433.60;;;;;;4916703;29;20032;-78
2021/01/28 12:28:05;;;;;;;21.98;10.23;;;179.40;1331.20;;;;;;4915998;29;20024;-73
2021/01/28 12:30:31;;;;;;;18.73;9.65;;;179.30;1382.40;;;;;;4914921;29;20028;-75
2021/01/28 12:32:58;;;;;;;16.27;9.30;;;179.40;1356.80;;;;;;4916119;29;20025;-80
2021/01/28 12:35:24;;;;;;;16.85;9.18;;;179.40;1331.20;;;;;;4915535;29;20036;-73
2021/01/28 12:37:50;;;;;;;24.05;11.88;;;179.40;1408.00;;;;;;4915174;29;20524;-74